Time;durP1;ratioP1;P1;durP2;ratioP2;P2;SDS_P1;SDS_P2;PMS_P1;PMS_P2;Temp;Humidity;BMP_temperature;BMP_pressure;BME280_temperature;BME280_humidity;BME280_pressure;Samples;Min_cycle;Max_cycle;Signal;HPM_P1;HPM_P2
2023/03/04 00:02:13;;;;;;;;;;;;;;;;;;5129456;27;43099;-83
2023/03/04 00:04:38;;;;;;;;;;;16.90;78.40;;;;;;5126640;27;43080;-83
2023/03/04 00:07:04;;;;;;;;;;;;;;;;;;5126698;27;43082;-84
2023/03/04 00:09:30;;;;;;;;;;;16.90;78.20;;;;;;5124857;27;43095;-83
2023/03/04 00:11:55;;;;;;;;;;;16.90;78.70;;;;;;5125989;27;42868;-83
2023/03/04 00:14:21;;;;;;;;;;;16.90;78.70;;;;;;5124965;27;43846;-83
2023/03/04 00:16:48;;;;;;;;;;;16.90;78.80;;;;;;5126535;27;42913;-83
2023/03/04 00:19:13;;;;;;;;;;;16.90;78.90;;;;;;5125273;27;43311;-84
2023/03/04 00:21:39;;;;;;;;;;;16.80;79.30;;;;;;5124622;27;42901;-83
2023/03/04 00:24:05;;;;;;;;;;;16.90;78.90;;;;;;5126049;27;42965;-83
2023/03/04 00:26:31;;;;;;;;;;;16.90;78.90;;;;;;5126528;27;43049;-83
2023/03/04 00:28:56;;;;;;;;;;;17.00;79.00;;;;;;5126085;27;43460;-83
2023/03/04 00:31:22;;;;;;;;;;;16.80;78.80;;;;;;5126016;27;42909;-83
2023/03/04 00:33:47;;;;;;;;;;;16.90;78.90;;;;;;5125883;27;42864;-83
2023/03/04 00:36:13;;;;;;;;;;;16.80;78.90;;;;;;5125982;27;42966;-82
2023/03/04 00:38:39;;;;;;;;;;;17.00;79.00;;;;;;5125253;27;43868;-83
2023/03/04 00:41:05;;;;;;;;;;;16.90;78.90;;;;;;5125453;27;42920;-82
2023/03/04 00:43:31;;;;;;;;;;;16.80;78.90;;;;;;5125747;27;42992;-83
2023/03/04 00:45:56;;;;;;;;;;;17.00;79.00;;;;;;5125436;27;42903;-82
2023/03/04 00:48:22;;;;;;;;;;;16.90;79.00;;;;;;5125578;27;43065;-82
2023/03/04 00:50:48;;;;;;;;;;;16.90;78.90;;;;;;5123670;27;43039;-83
2023/03/04 00:53:13;;;;;;;;;;;17.00;79.00;;;;;;5125297;27;42990;-82
2023/03/04 00:55:39;;;;;;;;;;;17.10;79.40;;;;;;5118913;27;44008;-83
2023/03/04 00:58:05;;;;;;;;;;;16.70;78.90;;;;;;5123354;27;43461;-82
2023/03/04 01:00:30;;;;;;;;;;;16.90;79.10;;;;;;5124695;27;43012;-83
2023/03/04 01:02:56;;;;;;;;;;;16.80;78.90;;;;;;5124978;27;42935;-83
2023/03/04 01:05:21;;;;;;;;;;;16.90;79.00;;;;;;5125687;27;43065;-82
2023/03/04 01:07:47;;;;;;;;;;;16.70;78.90;;;;;;5125650;27;44032;-83
2023/03/04 01:10:13;;;;;;;;;;;16.90;78.90;;;;;;5126266;27;42928;-82
2023/03/04 01:12:42;;;;;;;;;;;16.90;79.00;;;;;;5123987;27;43393;-83
2023/03/04 01:15:08;;;;;;;;;;;16.90;77.80;;;;;;5125092;27;42904;-83
2023/03/04 01:17:34;;;;;;;;;;;16.90;79.00;;;;;;5125089;27;43563;-83
2023/03/04 01:19:59;;;;;;;;;;;16.90;79.00;;;;;;5126515;27;42897;-84
2023/03/04 01:22:25;;;;;;;;;;;16.80;78.90;;;;;;5129151;27;43158;-83
2023/03/04 01:24:50;;;;;;;;;;;16.90;79.00;;;;;;5127683;27;43019;-82
2023/03/04 01:27:16;;;;;;;;;;;16.90;79.60;;;;;;5127507;27;43462;-83
2023/03/04 01:29:41;;;;;;;;;;;16.80;78.90;;;;;;5128359;27;43030;-83
2023/03/04 01:32:07;;;;;;;;;;;16.90;78.90;;;;;;5128007;27;42937;-82
2023/03/04 01:34:33;;;;;;;;;;;16.90;79.00;;;;;;5127933;27;42967;-83
2023/03/04 01:36:58;;;;;;;;;;;16.70;78.90;;;;;;5126464;27;45286;-83
2023/03/04 01:39:24;;;;;;;;;;;;;;;;;;5129411;27;43352;-83
2023/03/04 01:41:50;;;;;;;;;;;;;;;;;;5129333;27;42939;-83
2023/03/04 01:44:16;;;;;;;;;;;;;;;;;;5127943;27;42956;-83
2023/03/04 01:46:42;;;;;;;;;;;;;;;;;;5127792;27;43485;-82
2023/03/04 01:49:08;;;;;;;;;;;16.80;79.00;;;;;;5128468;27;42797;-82
2023/03/04 01:51:34;;;;;;;;;;;16.80;79.60;;;;;;5128315;27;42987;-82
2023/03/04 01:53:59;;;;;;;;;;;16.80;79.00;;;;;;5129012;27;42908;-84
2023/03/04 01:56:29;;;;;;;;;;;17.00;79.10;;;;;;5127613;27;43665;-82
2023/03/04 01:58:55;;;;;;;;;;;;;;;;;;5127328;27;43001;-82
2023/03/04 02:01:21;;;;;;;;;;;;;;;;;;5128274;27;43553;-82
2023/03/04 02:03:46;;;;;;;;;;;16.90;79.20;;;;;;5128104;27;43199;-83
2023/03/04 02:06:12;;;;;;;;;;;16.90;79.10;;;;;;5128185;27;43523;-83
2023/03/04 02:08:38;;;;;;;;;;;;;;;;;;5128972;27;42918;-83
2023/03/04 02:11:03;;;;;;;;;;;17.00;79.20;;;;;;5128740;27;43537;-83
2023/03/04 02:13:29;;;;;;;;;;;16.80;79.10;;;;;;5128721;27;42903;-85
2023/03/04 02:15:55;;;;;;;;;;;16.80;79.70;;;;;;5127488;27;43601;-83
2023/03/04 02:18:22;;;;;;;;;;;16.90;79.20;;;;;;5127772;27;42935;-83
2023/03/04 02:20:53;;;;;;;;;;;16.90;79.10;;;;;;5125788;27;43561;-83
2023/03/04 02:23:41;;;;;;;;;;;16.80;79.10;;;;;;5127518;27;43007;-83
2023/03/04 02:26:15;;;;;;;;;;;16.80;78.40;;;;;;5125532;27;44441;-82
2023/03/04 02:28:40;;;;;;;;;;;16.90;78.50;;;;;;5127404;27;42892;-82
2023/03/04 02:31:08;;;;;;;;;;;16.80;79.10;;;;;;5126982;27;43473;-83
2023/03/04 02:33:34;;;;;;;;;;;;;;;;;;5127811;27;42966;-83
2023/03/04 02:35:59;;;;;;;;;;;16.80;79.10;;;;;;5128497;27;43493;-83
2023/03/04 02:38:25;;;;;;;;;;;16.80;79.20;;;;;;5126194;27;43022;-83
2023/03/04 02:40:52;;;;;;;;;;;16.90;79.20;;;;;;5127757;27;42858;-84
2023/03/04 02:43:18;;;;;;;;;;;16.90;79.80;;;;;;5127843;27;42930;-83
2023/03/04 02:45:44;;;;;;;;;;;;;;;;;;5127696;27;43490;-83
2023/03/04 02:48:10;;;;;;;;;;;16.90;79.20;;;;;;5127978;27;43237;-83
2023/03/04 02:50:36;;;;;;;;;;;;;;;;;;5126340;27;44339;-83
2023/03/04 02:53:02;;;;;;;;;;;16.80;79.10;;;;;;5127881;27;42852;-83
2023/03/04 02:55:27;;;;;;;;;;;16.80;79.10;;;;;;5127325;27;43555;-83
2023/03/04 02:57:53;;;;;;;;;;;16.80;79.10;;;;;;5127336;27;42936;-83
2023/03/04 03:00:18;;;;;;;;;;;16.80;79.20;;;;;;5126774;27;43548;-83
2023/03/04 03:02:44;;;;;;;;;;;16.80;79.20;;;;;;5125636;27;43268;-83
2023/03/04 03:05:10;;;;;;;;;;;16.80;79.20;;;;;;5127007;27;43434;-83
2023/03/04 03:07:37;;;;;;;;;;;16.90;79.20;;;;;;5127272;27;42936;-83
2023/03/04 03:10:03;;;;;;;;;;;16.80;79.20;;;;;;5127215;27;42807;-83
2023/03/04 03:12:28;;;;;;;;;;;16.90;79.70;;;;;;5126878;27;42916;-83
2023/03/04 03:14:54;;;;;;;;;;;16.80;79.20;;;;;;5126014;27;43718;-83
2023/03/04 03:17:20;;;;;;;;;;;;;;;;;;5127252;27;42774;-83
2023/03/04 03:19:45;;;;;;;;;;;16.80;79.30;;;;;;5127754;27;42919;-82
2023/03/04 03:22:10;;;;;;;;;;;16.90;79.30;;;;;;5127322;27;42893;-83
2023/03/04 03:24:36;;;;;;;;;;;16.80;79.20;;;;;;5126028;27;43586;-82
2023/03/04 03:27:02;;;;;;;;;;;;;;;;;;5124376;27;43086;-83
2023/03/04 03:29:27;;;;;;;;;;;16.70;79.30;;;;;;5126501;27;42937;-83
2023/03/04 03:31:53;;;;;;;;;;;16.80;79.30;;;;;;5124854;27;43005;-83
2023/03/04 03:34:18;;;;;;;;;;;16.90;79.30;;;;;;5127104;27;42911;-83
2023/03/04 03:36:44;;;;;;;;;;;16.80;79.30;;;;;;5126587;27;42977;-83
2023/03/04 03:39:10;;;;;;;;;;;16.80;79.40;;;;;;5127060;27;43488;-83
2023/03/04 03:41:35;;;;;;;;;;;16.80;79.40;;;;;;5116873;27;42900;-83
2023/03/04 03:44:01;;;;;;;;;;;;;;;;;;5122599;27;43171;-83
2023/03/04 03:46:27;;;;;;;;;;;16.70;79.40;;;;;;5127218;27;42820;-82
2023/03/04 03:48:52;;;;;;;;;;;16.80;79.40;;;;;;5126655;27;43293;-82
2023/03/04 03:51:18;;;;;;;;;;;16.80;79.40;;;;;;5126638;27;43014;-82
2023/03/04 03:53:43;;;;;;;;;;;16.80;79.40;;;;;;5125005;27;44858;-83
2023/03/04 03:56:09;;;;;;;;;;;;;;;;;;5124993;27;43567;-83
2023/03/04 03:58:34;;;;;;;;;;;16.80;79.40;;;;;;5126458;27;42951;-82
2023/03/04 04:01:00;;;;;;;;;;;16.80;79.40;;;;;;5125918;27;42899;-83
2023/03/04 04:03:25;;;;;;;;;;;16.90;79.50;;;;;;5125642;27;42994;-83
2023/03/04 04:05:51;;;;;;;;;;;16.80;79.40;;;;;;5126129;27;43019;-84
2023/03/04 04:08:17;;;;;;;;;;;16.80;79.40;;;;;;5125859;27;43023;-83
2023/03/04 04:10:42;;;;;;;;;;;16.80;79.40;;;;;;5126931;27;42982;-83
2023/03/04 04:13:08;;;;;;;;;;;17.00;79.50;;;;;;5124746;27;44865;-83
2023/03/04 04:15:35;;;;;;;;;;;16.80;79.40;;;;;;5125877;27;43116;-83
2023/03/04 04:18:01;;;;;;;;;;;16.80;79.50;;;;;;5125358;27;43134;-82
2023/03/04 04:20:26;;;;;;;;;;;16.90;79.50;;;;;;5125383;27;42955;-83
2023/03/04 04:22:52;;;;;;;;;;;16.70;79.40;;;;;;5125557;27;42975;-83
2023/03/04 04:25:17;;;;;;;;;;;16.80;79.40;;;;;;5124241;27;42947;-83
2023/03/04 04:27:43;;;;;;;;;;;;;;;;;;5125509;27;42961;-83
2023/03/04 04:30:09;;;;;;;;;;;16.80;79.40;;;;;;5126409;27;43505;-83
2023/03/04 04:32:35;;;;;;;;;;;16.80;79.50;;;;;;5125522;27;44423;-83
2023/03/04 04:35:00;;;;;;;;;;;16.70;79.40;;;;;;5124186;27;43027;-83
2023/03/04 04:37:26;;;;;;;;;;;16.80;79.40;;;;;;5125286;27;43667;-82
2023/03/04 04:39:54;;;;;;;;;;;16.80;79.40;;;;;;5126235;27;42979;-84
2023/03/04 04:42:20;;;;;;;;;;;16.80;79.40;;;;;;5126127;27;43069;-82
2023/03/04 04:44:46;;;;;;;;;;;;;;;;;;5126034;27;42944;-82
2023/03/04 04:47:11;;;;;;;;;;;16.80;79.40;;;;;;5126189;27;43801;-83
2023/03/04 04:49:37;;;;;;;;;;;;;;;;;;5124933;27;42884;-83
2023/03/04 04:52:03;;;;;;;;;;;16.80;79.40;;;;;;5126281;27;42875;-83
2023/03/04 04:54:28;;;;;;;;;;;16.80;79.40;;;;;;5126292;27;42994;-82
2023/03/04 04:56:54;;;;;;;;;;;;;;;;;;5128263;27;43032;-83
2023/03/04 04:59:20;;;;;;;;;;;16.70;79.40;;;;;;5129349;27;42962;-83
2023/03/04 05:01:45;;;;;;;;;;;16.80;79.50;;;;;;5128937;27;43057;-83
2023/03/04 05:04:11;;;;;;;;;;;16.80;79.50;;;;;;5126869;27;42993;-85
2023/03/04 05:06:37;;;;;;;;;;;16.50;79.30;;;;;;5128609;27;43008;-81
2023/03/04 05:09:03;;;;;;;;;;;16.80;79.60;;;;;;5124895;27;43253;-91
2023/03/04 05:11:29;;;;;;;;;;;;;;;;;;5129540;27;42679;-96
2023/03/04 05:13:54;;;;;;;;;;;16.80;79.60;;;;;;5129614;27;42998;-91
2023/03/04 05:16:20;;;;;;;;;;;;;;;;;;5138430;27;42826;-94
2023/03/04 05:18:46;;;;;;;;;;;16.80;79.40;;;;;;5143598;27;42286;-94
2023/03/04 05:21:12;;;;;;;;;;;16.90;79.50;;;;;;5149078;27;42705;-93
2023/03/04 05:23:41;;;;;;;;;;;;;;;;;;5143132;27;42327;-96
2023/03/04 05:26:15;;;;;;;;;;;16.90;78.30;;;;;;5150524;27;42862;-96
2023/03/04 05:28:40;;;;;;;;;;;16.90;79.40;;;;;;5150283;27;42258;-96
2023/03/04 05:31:06;;;;;;;;;;;;;;;;;;5145929;27;42828;-96
2023/03/04 05:33:32;;;;;;;;;;;;;;;;;;5141594;27;42536;-95
2023/03/04 05:35:58;;;;;;;;;;;16.90;79.40;;;;;;5143119;27;45861;-96
2023/03/04 05:38:26;;;;;;;;;;;16.80;79.30;;;;;;5148032;27;42397;-88
2023/03/04 05:41:00;;;;;;;;;;;16.90;79.40;;;;;;5147808;27;42713;-95
2023/03/04 05:43:27;;;;;;;;;;;;;;;;;;5140194;27;42427;-92
2023/03/04 05:46:05;;;;;;;;;;;16.70;79.40;;;;;;5142229;27;42735;-87
2023/03/04 05:48:31;;;;;;;;;;;16.70;78.10;;;;;;5140837;27;42188;-96
2023/03/04 05:50:58;;;;;;;;;;;16.70;79.30;;;;;;5142715;27;43228;-95
2023/03/04 05:53:24;;;;;;;;;;;16.80;79.30;;;;;;5146371;27;42868;-96
2023/03/04 05:55:50;;;;;;;;;;;16.80;79.30;;;;;;5149981;27;42838;-82
2023/03/04 05:58:16;;;;;;;;;;;16.70;79.20;;;;;;5154952;27;42624;-81
2023/03/04 06:00:41;;;;;;;;;;;16.80;79.40;;;;;;5150739;27;43053;-86
2023/03/04 06:03:12;;;;;;;;;;;16.70;79.30;;;;;;5151960;27;42254;-91
2023/03/04 06:05:38;;;;;;;;;;;16.70;79.20;;;;;;5148290;27;42475;-86
2023/03/04 06:08:03;;;;;;;;;;;16.70;79.30;;;;;;5150282;27;42372;-87
2023/03/04 06:10:29;;;;;;;;;;;16.70;79.20;;;;;;5137795;27;43165;-87
2023/03/04 06:12:55;;;;;;;;;;;;;;;;;;5138070;27;42774;-86
2023/03/04 06:15:21;;;;;;;;;;;;;;;;;;5145052;27;42892;-84
2023/03/04 06:17:46;;;;;;;;;;;16.90;79.00;;;;;;5122547;27;43070;-84
2023/03/04 06:20:12;;;;;;;;;;;16.80;79.40;;;;;;5106433;27;43635;-87
2023/03/04 06:22:38;;;;;;;;;;;16.70;80.20;;;;;;5119450;27;43390;-91
2023/03/04 06:25:03;;;;;;;;;;;16.80;79.70;;;;;;5124623;27;43292;-90
2023/03/04 06:27:29;;;;;;;;;;;16.80;79.70;;;;;;5128084;27;42750;-93
2023/03/04 06:29:55;;;;;;;;;;;16.80;79.40;;;;;;5126793;27;44041;-94
2023/03/04 06:32:21;;;;;;;;;;;16.70;79.30;;;;;;5130292;27;42940;-95
2023/03/04 06:34:46;;;;;;;;;;;;;;;;;;5127291;27;42982;-86
2023/03/04 06:37:12;;;;;;;;;;;;;;;;;;5126878;27;43078;-83
2023/03/04 06:39:38;;;;;;;;;;;16.80;79.30;;;;;;5127099;27;42957;-78
2023/03/04 06:42:04;;;;;;;;;;;;;;;;;;5127220;27;43058;-88
2023/03/04 06:44:29;;;;;;;;;;;16.90;79.40;;;;;;5127251;27;43928;-89
2023/03/04 06:46:55;;;;;;;;;;;16.70;79.30;;;;;;5125249;27;43062;-89
2023/03/04 06:49:20;;;;;;;;;;;16.80;79.40;;;;;;5124920;27;45245;-91
2023/03/04 07:09:09;;;;;;;;;;;16.80;78.30;;;;;;5223802;22;42973;-83
2023/03/04 07:11:34;;;;;;;;;;;16.90;79.70;;;;;;5015807;28;43579;-85
2023/03/04 07:14:00;;;;;;;;;;;16.70;79.50;;;;;;5010638;28;42939;-85
2023/03/04 07:16:25;;;;;;;;;;;16.80;79.70;;;;;;5116636;22;43046;-85
2023/03/04 07:27:42;;;;;;;;;;;16.70;78.60;;;;;;5015421;28;43174;-84
2023/03/04 07:30:13;;;;;;;;;;;16.70;79.70;;;;;;5029924;28;42949;-85
2023/03/04 07:32:39;;;;;;;;;;;16.80;79.70;;;;;;5012897;28;43482;-84
2023/03/04 07:35:05;;;;;;;;;;;16.80;79.70;;;;;;5012295;28;42858;-83
2023/03/04 07:37:30;;;;;;;;;;;;;;;;;;5016159;28;43054;-87
2023/03/04 07:39:56;;;;;;;;;;;;;;;;;;5015633;28;43031;-87
2023/03/04 07:42:22;;;;;;;;;;;;;;;;;;5022002;28;43468;-87
2023/03/04 07:44:48;;;;;;;;;;;;;;;;;;5006277;28;43513;-82
2023/03/04 07:47:14;;;;;;;;;;;;;;;;;;5015303;28;42961;-85
2023/03/04 07:49:40;;;;;;;;;;;;;;;;;;5010607;28;42909;-87
2023/03/04 07:52:06;;;;;;;;;;;;;;;;;;5003664;28;44595;-84
2023/03/04 07:54:32;;;;;;;;;;;;;;;;;;5004205;28;42945;-87
2023/03/04 07:56:58;;;;;;;;;;;;;;;;;;5015441;28;43705;-85
2023/03/04 07:59:24;;;;;;;;;;;;;;;;;;5005853;28;44061;-84
2023/03/04 08:01:50;;;;;;;;;;;;;;;;;;5011921;28;43456;-87
2023/03/04 08:04:16;;;;;;;;;;;;;;;;;;5014775;28;42941;-88
2023/03/04 08:06:41;;;;;;;;;;;;;;;;;;5012989;28;43613;-89
2023/03/04 08:09:07;;;;;;;;;;;;;;;;;;5008922;28;43156;-79
2023/03/04 08:11:33;;;;;;;;;;;;;;;;;;4997586;28;42937;-84
2023/03/04 08:13:59;;;;;;;;;;;;;;;;;;4991357;28;43013;-84
2023/03/04 08:16:25;;;;;;;;;;;;;;;;;;5007333;28;43963;-84
2023/03/04 08:18:51;;;;;;;;;;;;;;;;;;5015777;28;42812;-82
2023/03/04 08:21:18;;;;;;;;;;;;;;;;;;5009391;28;43033;-84
2023/03/04 08:23:44;;;;;;;;;;;;;;;;;;5004893;28;42936;-84
2023/03/04 08:26:09;;;;;;;;;;;;;;;;;;5005243;28;42787;-84
2023/03/04 08:28:35;;;;;;;;;;;;;;;;;;5004827;28;42733;-84
2023/03/04 08:31:01;;;;;;;;;;;;;;;;;;5005086;28;42923;-84
2023/03/04 08:33:27;;;;;;;;;;;;;;;;;;5005304;28;42934;-84
2023/03/04 08:35:53;;;;;;;;;;;;;;;;;;5005456;28;42922;-83
2023/03/04 08:38:19;;;;;;;;;;;;;;;;;;5005491;28;42945;-84
2023/03/04 08:40:45;;;;;;;;;;;;;;;;;;5005098;28;43515;-84
2023/03/04 08:43:11;;;;;;;;;;;;;;;;;;5005402;28;42896;-84
2023/03/04 08:45:36;;;;;;;;;;;;;;;;;;5004882;28;43422;-84
2023/03/04 08:48:02;;;;;;;;;;;;;;;;;;5005034;28;42821;-84
2023/03/04 08:50:28;;;;;;;;;;;;;;;;;;5004969;28;42979;-85
2023/03/04 08:52:54;;;;;;;;;;;;;;;;;;5004781;28;42926;-84
2023/03/04 08:55:20;;;;;;;;;;;;;;;;;;5005136;28;42921;-84
2023/03/04 08:57:46;;;;;;;;;;;;;;;;;;5005038;28;42920;-84
2023/03/04 09:00:12;;;;;;;;;;;;;;;;;;5004203;28;42957;-83
2023/03/04 09:02:38;;;;;;;;;;;;;;;;;;5004256;28;43512;-83
2023/03/04 09:05:04;;;;;;;;;;;;;;;;;;5004549;28;43043;-84
2023/03/04 09:07:29;;;;;;;;;;;;;;;;;;5003329;28;42985;-84
2023/03/04 09:09:55;;;;;;;;;;;;;;;;;;5004418;28;43604;-83
2023/03/04 09:12:21;;;;;;;;;;;;;;;;;;5004244;28;42893;-84
2023/03/04 09:14:47;;;;;;;;;;;;;;;;;;5004525;28;43957;-84
2023/03/04 09:17:13;;;;;;;;;;;;;;;;;;5004089;28;43000;-84
2023/03/04 09:19:39;;;;;;;;;;;;;;;;;;5002505;28;45826;-84
2023/03/04 09:22:05;;;;;;;;;;;;;;;;;;5004288;28;42886;-83
2023/03/04 09:24:31;;;;;;;;;;;;;;;;;;5003756;28;42822;-84
2023/03/04 09:26:56;;;;;;;;;;;;;;;;;;5004352;28;42975;-83
2023/03/04 09:29:23;;;;;;;;;;;;;;;;;;5004191;28;42734;-84
2023/03/04 09:31:49;;;;;;;;;;;;;;;;;;5004660;28;42992;-83
2023/03/04 09:34:15;;;;;;;;;;;;;;;;;;5004258;28;42875;-84
2023/03/04 09:36:41;;;;;;;;;;;;;;;;;;5004474;28;42929;-84
2023/03/04 09:39:07;;;;;;;;;;;;;;;;;;5002967;28;44613;-84
2023/03/04 09:41:33;;;;;;;;;;;;;;;;;;5004225;28;42910;-83
2023/03/04 09:43:59;;;;;;;;;;;;;;;;;;5007698;28;42802;-84
2023/03/04 09:46:24;;;;;;;;;;;;;;;;;;5006630;28;43167;-83
2023/03/04 09:48:50;;;;;;;;;;;;;;;;;;5006545;28;43611;-83
2023/03/04 09:51:16;;;;;;;;;;;;;;;;;;5007832;28;42913;-85
2023/03/04 09:53:42;;;;;;;;;;;;;;;;;;5007756;28;43451;-84
2023/03/04 09:56:08;;;;;;;;;;;;;;;;;;5007536;28;42949;-84
2023/03/04 09:58:34;;;;;;;;;;;;;;;;;;5007421;28;43748;-84
2023/03/04 10:01:00;;;;;;;;;;;;;;;;;;5005854;28;42744;-84
2023/03/04 10:03:26;;;;;;;;;;;;;;;;;;5006816;28;43439;-83
2023/03/04 10:05:52;;;;;;;;;;;;;;;;;;5007694;28;42979;-84
2023/03/04 10:08:18;;;;;;;;;;;;;;;;;;5007691;28;43865;-84
2023/03/04 10:10:44;;;;;;;;;;;;;;;;;;5005784;28;43058;-84
2023/03/04 10:13:10;;;;;;;;;;;;;;;;;;5007204;28;42933;-84
2023/03/04 10:15:36;;;;;;;;;;;;;;;;;;5007269;28;42928;-84
2023/03/04 10:18:01;;;;;;;;;;;;;;;;;;5006841;28;42833;-84
2023/03/04 10:20:28;;;;;;;;;;;;;;;;;;5007556;28;42969;-84
2023/03/04 10:22:54;;;;;;;;;;;;;;;;;;5006983;28;42841;-83
2023/03/04 10:25:20;;;;;;;;;;;;;;;;;;5005582;28;43128;-84
2023/03/04 10:27:46;;;;;;;;;;;;;;;;;;5006812;28;43472;-84
2023/03/04 10:30:12;;;;;;;;;;;;;;;;;;5006507;28;43567;-84
2023/03/04 10:32:38;;;;;;;;;;;;;;;;;;5006492;28;43429;-85
2023/03/04 10:35:04;;;;;;;;;;;;;;;;;;5006625;28;43125;-84
2023/03/04 10:37:30;;;;;;;;;;;;;;;;;;5006837;28;42929;-84
2023/03/04 10:39:55;;;;;;;;;;;;;;;;;;5007020;28;42739;-84
2023/03/04 10:42:21;;;;;;;;;;;;;;;;;;5006352;28;42857;-83
2023/03/04 10:44:47;;;;;;;;;;;;;;;;;;5006396;28;42917;-84
2023/03/04 10:47:13;;;;;;;;;;;;;;;;;;5006861;28;42897;-84
2023/03/04 10:49:39;;;;;;;;;;;;;;;;;;5006886;28;42770;-84
2023/03/04 10:52:05;;;;;;;;;;;;;;;;;;5006349;28;42834;-84
2023/03/04 10:54:31;;;;;;;;;;;;;;;;;;5006946;28;42889;-84
2023/03/04 10:56:57;;;;;;;;;;;;;;;;;;5006923;28;42815;-83
2023/03/04 10:59:23;;;;;;;;;;;;;;;;;;5006831;28;42868;-84
2023/03/04 11:01:48;;;;;;;;;;;;;;;;;;5004966;28;43601;-84
2023/03/04 11:04:14;;;;;;;;;;;;;;;;;;5006577;28;43044;-85
2023/03/04 11:06:40;;;;;;;;;;;;;;;;;;5006270;28;42921;-84
2023/03/04 11:09:06;;;;;;;;;;;;;;;;;;5006723;28;43098;-85
2023/03/04 11:11:33;;;;;;;;;;;;;;;;;;5006662;28;43551;-85
2023/03/04 11:13:59;;;;;;;;;;;;;;;;;;5006556;28;42739;-84
2023/03/04 11:16:25;;;;;;;;;;;;;;;;;;5005631;28;42972;-84
2023/03/04 11:18:51;;;;;;;;;;;;;;;;;;5006388;28;43555;-84
2023/03/04 11:21:17;;;;;;;;;;;;;;;;;;5006437;28;42971;-85
2023/03/04 11:23:42;;;;;;;;;;;;;;;;;;5006212;28;43071;-84
2023/03/04 11:26:09;;;;;;;;;;;;;;;;;;5004529;28;43311;-85
2023/03/04 11:28:35;;;;;;;;;;;;;;;;;;5005837;28;42758;-84
2023/03/04 11:31:01;;;;;;;;;;;;;;;;;;5006286;28;42743;-84
2023/03/04 11:33:27;;;;;;;;;;;;;;;;;;5006549;28;42905;-85
2023/03/04 11:35:52;;;;;;;;;;;;;;;;;;5006064;28;43009;-85
2023/03/04 11:38:18;;;;;;;;;;;;;;;;;;5006186;28;42737;-85
2023/03/04 11:40:44;;;;;;;;;;;;;;;;;;5005966;28;42756;-84
2023/03/04 11:43:11;;;;;;;;;;;;;;;;;;5006342;28;42788;-84
2023/03/04 11:45:37;;;;;;;;;;;;;;;;;;5005260;28;43476;-84
2023/03/04 11:48:03;;;;;;;;;;;;;;;;;;5005428;28;42956;-84
2023/03/04 11:50:29;;;;;;;;;;;;;;;;;;5005350;28;43495;-84
2023/03/04 11:52:55;;;;;;;;;;;;;;;;;;5005200;28;42948;-84
2023/03/04 11:55:20;;;;;;;;;;;;;;;;;;5005252;28;42861;-84
2023/03/04 11:57:46;;;;;;;;;;;;;;;;;;5004400;28;42986;-85
2023/03/04 12:00:12;;;;;;;;;;;;;;;;;;5005367;28;42902;-84
2023/03/04 12:02:38;;;;;;;;;;;;;;;;;;5004740;28;43077;-83
2023/03/04 12:05:04;;;;;;;;;;;;;;;;;;5004531;28;42979;-84
2023/03/04 12:07:30;;;;;;;;;;;;;;;;;;5005819;28;42852;-84
2023/03/04 12:09:56;;;;;;;;;;;;;;;;;;5005402;28;42997;-84
2023/03/04 12:12:21;;;;;;;;;;;;;;;;;;5005140;28;42956;-84
2023/03/04 12:14:47;;;;;;;;;;;;;;;;;;5005292;28;42960;-85
2023/03/04 12:17:13;;;;;;;;;;;;;;;;;;5004735;28;42920;-84
2023/03/04 12:19:39;;;;;;;;;;;;;;;;;;5005458;28;43559;-84
2023/03/04 12:22:05;;;;;;;;;;;;;;;;;;5005614;28;42927;-84
2023/03/04 12:24:33;;;;;;;;;;;;;;;;;;5004364;28;63859;-85
2023/03/04 12:27:00;;;;;;;;;;;;;;;;;;5005597;28;42933;-84
2023/03/04 12:29:26;;;;;;;;;;;;;;;;;;5005288;28;44435;-84
2023/03/04 12:31:52;;;;;;;;;;;;;;;;;;5005523;28;42925;-84
2023/03/04 12:34:18;;;;;;;;;;;;;;;;;;5005322;28;43796;-84
2023/03/04 12:36:44;;;;;;;;;;;;;;;;;;5004410;28;42948;-84
2023/03/04 12:39:10;;;;;;;;;;;;;;;;;;5004481;28;43034;-84
2023/03/04 12:41:35;;;;;;;;;;;;;;;;;;5003277;28;42981;-84
2023/03/04 12:44:01;;;;;;;;;;;;;;;;;;5004740;28;42956;-84
2023/03/04 12:46:27;;;;;;;;;;;;;;;;;;5004995;28;42740;-84
2023/03/04 12:48:53;;;;;;;;;;;;;;;;;;5003369;28;44518;-84
2023/03/04 12:51:19;;;;;;;;;;;;;;;;;;5002725;28;42977;-84
2023/03/04 12:53:45;;;;;;;;;;;;;;;;;;5002544;28;44536;-85
2023/03/04 12:56:11;;;;;;;;;;;;;;;;;;5005014;28;43030;-84
2023/03/04 12:58:37;;;;;;;;;;;;;;;;;;5003360;28;44903;-84
2023/03/04 13:01:05;;;;;;;;;;;;;;;;;;5004718;28;42901;-84
2023/03/04 13:03:31;;;;;;;;;;;;;;;;;;5002798;28;44165;-83
2023/03/04 13:05:59;;;;;;;;;;;;;;;;;;5004797;28;42874;-84
2023/03/04 13:08:25;;;;;;;;;;;;;;;;;;5005165;28;43987;-84
2023/03/04 13:10:51;;;;;;;;;;;;;;;;;;5003026;28;43078;-84
2023/03/04 13:13:17;;;;;;;;;;;;;;;;;;5004961;28;43755;-84
2023/03/04 13:15:43;;;;;;;;;;;;;;;;;;5004904;28;43002;-85
2023/03/04 13:18:08;;;;;;;;;;;;;;;;;;5006406;28;45100;-84
2023/03/04 13:20:35;;;;;;;;;;;;;;;;;;5008030;28;42842;-84
2023/03/04 13:23:03;;;;;;;;;;;;;;;;;;5006444;28;45110;-84
2023/03/04 13:25:29;;;;;;;;;;;;;;;;;;5008140;28;42873;-85
2023/03/04 13:27:55;;;;;;;;;;;;;;;;;;5007728;28;44073;-83
2023/03/04 13:30:21;;;;;;;;;;;;;;;;;;5007891;28;42981;-85
2023/03/04 13:32:47;;;;;;;;;;;;;;;;;;5007709;28;42944;-85
2023/03/04 13:35:13;;;;;;;;;;;;;;;;;;5007505;28;42944;-84
2023/03/04 13:37:38;;;;;;;;;;;;;;;;;;5007560;28;42898;-84
2023/03/04 13:40:04;;;;;;;;;;;;;;;;;;5007792;28;42977;-84
2023/03/04 13:42:30;;;;;;;;;;;;;;;;;;5007435;28;43559;-84
2023/03/04 13:44:56;;;;;;;;;;;;;;;;;;5007118;28;42952;-83
2023/03/04 13:47:22;;;;;;;;;;;;;;;;;;5005687;28;45143;-83
2023/03/04 13:49:48;;;;;;;;;;;;;;;;;;5006592;28;42990;-83
2023/03/04 13:52:14;;;;;;;;;;;;;;;;;;5005434;28;45274;-83
2023/03/04 13:54:40;;;;;;;;;;;;;;;;;;5005612;28;43032;-83
2023/03/04 13:57:06;;;;;;;;;;;;;;;;;;5007384;28;43173;-83
2023/03/04 13:59:32;;;;;;;;;;;;;;;;;;5007795;28;42953;-83
2023/03/04 14:01:59;;;;;;;;;;;;;;;;;;5007464;28;43010;-83
2023/03/04 14:04:25;;;;;;;;;;;;;;;;;;5007434;28;42922;-82
2023/03/04 14:06:51;;;;;;;;;;;;;;;;;;5007474;28;42770;-83
2023/03/04 14:09:19;;;;;;;;;;;;;;;;;;5007729;28;43016;-83
2023/03/04 14:11:45;;;;;;;;;;;;;;;;;;5007386;28;43973;-84
2023/03/04 14:14:11;;;;;;;;;;;;;;;;;;5007600;28;42900;-82
2023/03/04 14:16:36;;;;;;;;;;;;;;;;;;5006589;28;43032;-83
2023/03/04 14:19:02;;;;;;;;;;;;;;;;;;5005520;28;42806;-82
2023/03/04 14:21:28;;;;;;;;;;;;;;;;;;5007356;28;43481;-84
2023/03/04 14:23:54;;;;;;;;;;;;;;;;;;5007101;28;42875;-83
2023/03/04 14:26:20;;;;;;;;;;;;;;;;;;5005821;28;44649;-83
2023/03/04 14:28:46;;;;;;;;;;;;;;;;;;5006785;28;42869;-84
2023/03/04 14:31:12;;;;;;;;;;;;;;;;;;5006955;28;43491;-83
2023/03/04 14:33:38;;;;;;;;;;;;;;;;;;5007254;28;42763;-83
2023/03/04 14:36:04;;;;;;;;;;;;;;;;;;5006724;28;42927;-83
2023/03/04 14:38:30;;;;;;;;;;;;;;;;;;5007190;28;42806;-83
2023/03/04 14:40:55;;;;;;;;;;;;;;;;;;5006805;28;42896;-83
2023/03/04 14:43:21;;;;;;;;;;;;;;;;;;5007128;28;42872;-83
2023/03/04 14:45:48;;;;;;;;;;;;;;;;;;5006738;28;42862;-83
2023/03/04 14:48:14;;;;;;;;;;;;;;;;;;5006942;28;43078;-83
2023/03/04 14:50:40;;;;;;;;;;;;;;;;;;5006534;28;43566;-84
2023/03/04 14:53:05;;;;;;;;;;;;;;;;;;5006553;28;42695;-83
2023/03/04 14:55:31;;;;;;;;;;;;;;;;;;5006466;28;43468;-84
2023/03/04 14:57:57;;;;;;;;;;;;;;;;;;5005911;28;42960;-84
2023/03/04 15:00:24;;;;;;;;;;;;;;;;;;5006298;28;42842;-84
2023/03/04 15:02:49;;;;;;;;;;;;;;;;;;5006503;28;42924;-83
2023/03/04 15:05:15;;;;;;;;;;;;;;;;;;5006734;28;42888;-83
2023/03/04 15:07:41;;;;;;;;;;;;;;;;;;5005070;28;42916;-83
2023/03/04 15:10:07;;;;;;;;;;;;;;;;;;5006600;28;42878;-83
2023/03/04 15:12:33;;;;;;;;;;;;;;;;;;5006570;28;43051;-83
2023/03/04 15:14:59;;;;;;;;;;;;;;;;;;5006212;28;44677;-83
2023/03/04 15:17:25;;;;;;;;;;;;;;;;;;5005991;28;43036;-83
2023/03/04 15:19:51;;;;;;;;;;;;;;;;;;5006482;28;43521;-82
2023/03/04 15:22:17;;;;;;;;;;;;;;;;;;5006739;28;42995;-83
2023/03/04 15:24:43;;;;;;;;;;;;;;;;;;5004826;28;44803;-83
2023/03/04 15:27:08;;;;;;;;;;;;;;;;;;5006266;28;42878;-82
2023/03/04 15:29:34;;;;;;;;;;;;;;;;;;5006348;28;42956;-82
2023/03/04 15:32:00;;;;;;;;;;;;;;;;;;5004868;28;43027;-84
2023/03/04 15:34:26;;;;;;;;;;;;;;;;;;5005663;28;42931;-83
2023/03/04 15:36:52;;;;;;;;;;;;;;;;;;5005788;28;42872;-83
2023/03/04 15:39:18;;;;;;;;;;;;;;;;;;5004686;28;43019;-84
2023/03/04 15:41:45;;;;;;;;;;;;;;;;;;5006154;28;43003;-83
2023/03/04 15:44:11;;;;;;;;;;;;;;;;;;5004202;28;43833;-83
2023/03/04 15:46:37;;;;;;;;;;;;;;;;;;5006669;28;42763;-82
2023/03/04 15:49:03;;;;;;;;;;;;;;;;;;5004302;28;44984;-83
2023/03/04 15:51:29;;;;;;;;;;;;;;;;;;5005861;28;43052;-83
2023/03/04 15:53:55;;;;;;;;;;;;;;;;;;5003812;28;43888;-81
2023/03/04 15:56:21;;;;;;;;;;;;;;;;;;5004595;28;42986;-83
2023/03/04 15:58:47;;;;;;;;;;;;;;;;;;5005801;28;42957;-84
2023/03/04 16:01:12;;;;;;;;;;;;;;;;;;5004319;28;42966;-82
2023/03/04 16:03:40;;;;;;;;;;;;;;;;;;5005665;28;42806;-81